Time;durP1;ratioP1;P1;durP2;ratioP2;P2;SDS_P1;SDS_P2;PMS_P1;PMS_P2;Temp;Humidity;BMP_temperature;BMP_pressure;BME280_temperature;BME280_humidity;BME280_pressure;Samples;Min_cycle;Max_cycle;Signal;HPM_P1;HPM_P2
2023/01/22 00:00:28;;;;;;;3.72;2.22;;;-0.20;91.30;;;;;;5027151;28;20488;-67
2023/01/22 00:02:54;;;;;;;4.00;2.55;;;-0.20;91.30;;;;;;5026224;28;20030;-68
2023/01/22 00:05:20;;;;;;;6.18;3.25;;;-0.30;91.30;;;;;;5028056;28;20080;-66
2023/01/22 00:07:45;;;;;;;4.97;2.85;;;-0.30;91.30;;;;;;5026935;28;20025;-67
2023/01/22 00:10:11;;;;;;;4.07;2.42;;;-0.30;91.30;;;;;;5027422;28;20131;-66
2023/01/22 00:12:37;;;;;;;5.88;2.60;;;-0.30;91.30;;;;;;5027897;28;20018;-69
2023/01/22 00:15:03;;;;;;;6.47;2.90;;;-0.30;91.30;;;;;;5027010;28;20040;-66
2023/01/22 00:17:29;;;;;;;4.78;2.70;;;-0.30;91.20;;;;;;5027638;28;20029;-66
2023/01/22 00:19:55;;;;;;;6.90;3.40;;;-0.30;91.20;;;;;;5024911;28;20112;-70
2023/01/22 00:22:21;;;;;;;3.97;2.25;;;-0.30;91.20;;;;;;5027075;28;20017;-68
2023/01/22 00:24:46;;;;;;;5.38;2.85;;;-0.30;91.20;;;;;;5026142;28;20044;-67
2023/01/22 00:27:12;;;;;;;5.03;2.25;;;-0.30;91.20;;;;;;5026668;28;20037;-66
2023/01/22 00:29:37;;;;;;;6.40;3.33;;;-0.30;91.20;;;;;;5026421;28;20026;-66
2023/01/22 00:32:03;;;;;;;4.35;2.85;;;-0.30;91.20;;;;;;5026096;28;20026;-67
2023/01/22 00:34:29;;;;;;;4.70;2.15;;;-0.30;91.20;;;;;;5030213;28;20025;-67
2023/01/22 00:36:55;;;;;;;3.15;1.95;;;-0.30;91.20;;;;;;5030867;28;20083;-67
2023/01/22 00:39:20;;;;;;;2.17;2.00;;;-0.30;91.20;;;;;;5031028;28;20071;-67
2023/01/22 00:41:46;;;;;;;3.28;2.20;;;-0.30;91.20;;;;;;5032850;28;20057;-66
2023/01/22 00:44:11;;;;;;;3.38;2.40;;;-0.30;91.20;;;;;;5031436;28;20480;-67
2023/01/22 00:46:37;;;;;;;4.15;2.55;;;-0.30;91.10;;;;;;5032061;28;20026;-66
2023/01/22 00:49:03;;;;;;;4.13;2.85;;;-0.30;91.10;;;;;;5030450;28;20112;-66
2023/01/22 00:51:29;;;;;;;2.50;1.77;;;-0.30;91.10;;;;;;5032584;28;20096;-65
2023/01/22 00:53:55;;;;;;;2.97;1.85;;;-0.20;91.10;;;;;;5028509;28;20072;-66
2023/01/22 00:56:20;;;;;;;2.47;1.90;;;-0.30;91.10;;;;;;5031099;28;20117;-67
2023/01/22 00:58:46;;;;;;;4.53;2.13;;;-0.20;91.10;;;;;;5030871;28;20036;-65
2023/01/22 01:01:14;;;;;;;4.30;1.95;;;-0.20;91.10;;;;;;5028233;28;20082;-66
2023/01/22 01:03:40;;;;;;;2.63;1.85;;;-0.20;91.10;;;;;;5026060;28;20551;-66
2023/01/22 01:06:13;;;;;;;4.00;2.17;;;-0.10;91.10;;;;;;5026213;28;20033;-66
2023/01/22 01:08:41;;;;;;;3.25;2.00;;;-0.10;91.10;;;;;;5032114;28;20124;-68
2023/01/22 01:11:12;;;;;;;2.78;1.85;;;-0.10;91.00;;;;;;5028259;28;20029;-66
2023/01/22 01:13:41;;;;;;;5.60;2.50;;;-0.10;91.00;;;;;;5032275;28;20025;-66
2023/01/22 01:16:12;;;;;;;3.85;1.85;;;-0.10;91.00;;;;;;5026946;28;20026;-65
2023/01/22 01:18:37;;;;;;;3.17;2.05;;;0.00;91.00;;;;;;5026031;28;20060;-67
2023/01/22 01:21:06;;;;;;;3.20;2.15;;;0.00;90.90;;;;;;5031229;28;20434;-66
2023/01/22 01:23:32;;;;;;;2.00;1.65;;;0.10;91.00;;;;;;5031535;28;20079;-68
2023/01/22 01:25:58;;;;;;;4.05;2.50;;;0.10;91.00;;;;;;5030239;28;20101;-68
2023/01/22 01:28:24;;;;;;;3.05;1.73;;;0.10;90.90;;;;;;5032191;28;20514;-66
2023/01/22 01:30:49;;;;;;;3.20;1.90;;;0.20;90.90;;;;;;5031338;28;20693;-66
2023/01/22 01:33:15;;;;;;;4.88;2.22;;;0.20;90.90;;;;;;5030821;28;20039;-66
2023/01/22 01:35:40;;;;;;;6.20;2.45;;;0.30;90.90;;;;;;5028399;28;20055;-66
2023/01/22 01:38:06;;;;;;;3.47;2.22;;;0.30;90.80;;;;;;5031051;28;20044;-69
2023/01/22 01:40:33;;;;;;;4.20;2.67;;;0.30;90.80;;;;;;5029836;28;20037;-66
2023/01/22 01:42:58;;;;;;;3.58;2.10;;;0.40;90.80;;;;;;5030894;28;20411;-67
2023/01/22 01:45:29;;;;;;;3.40;2.40;;;0.50;90.80;;;;;;5025824;28;20026;-66
2023/01/22 01:48:05;;;;;;;3.40;2.08;;;0.50;90.80;;;;;;5028665;28;20029;-68
2023/01/22 01:50:30;;;;;;;3.45;2.17;;;0.50;90.70;;;;;;5030467;28;20021;-67
2023/01/22 01:52:58;;;;;;;4.95;3.03;;;0.60;90.70;;;;;;5029397;28;20051;-65
2023/01/22 01:55:28;;;;;;;4.72;2.50;;;0.60;90.70;;;;;;5024690;28;20531;-66
2023/01/22 01:57:58;;;;;;;4.65;2.60;;;0.70;90.80;;;;;;5024907;28;20029;-66
2023/01/22 02:00:28;;;;;;;5.63;2.90;;;0.70;90.80;;;;;;5029468;28;20029;-65
2023/01/22 02:02:54;;;;;;;4.10;2.47;;;0.70;90.80;;;;;;5026097;28;20033;-66
2023/01/22 02:05:21;;;;;;;4.57;2.63;;;0.70;90.80;;;;;;5029181;28;20017;-66
2023/01/22 02:07:47;;;;;;;4.00;2.20;;;0.80;90.80;;;;;;5026448;28;20476;-66
2023/01/22 02:10:13;;;;;;;6.60;2.63;;;0.80;90.80;;;;;;5030545;28;20036;-66
2023/01/22 02:12:38;;;;;;;5.25;2.45;;;0.80;90.80;;;;;;5027595;28;20544;-66
2023/01/22 02:15:05;;;;;;;3.85;2.35;;;0.80;90.80;;;;;;5029852;28;20033;-66
2023/01/22 02:17:30;;;;;;;4.30;2.20;;;0.90;90.90;;;;;;5029333;28;20104;-66
2023/01/22 02:19:56;;;;;;;3.88;2.13;;;0.80;90.80;;;;;;5030172;28;20144;-67
2023/01/22 02:22:27;;;;;;;2.80;2.08;;;0.80;91.10;;;;;;5027708;28;20156;-65
2023/01/22 02:24:53;;;;;;;8.63;2.73;;;0.80;90.90;;;;;;5029748;28;20029;-66
2023/01/22 02:27:19;;;;;;;5.63;3.13;;;0.80;90.90;;;;;;5024509;28;20395;-66
2023/01/22 02:29:45;;;;;;;4.38;2.70;;;0.80;90.90;;;;;;5030135;28;20104;-66
2023/01/22 02:32:11;;;;;;;4.22;2.35;;;0.80;90.90;;;;;;5023704;28;20413;-66
2023/01/22 02:34:37;;;;;;;3.67;2.55;;;0.80;90.90;;;;;;5029419;28;20033;-66
2023/01/22 02:37:03;;;;;;;7.60;3.25;;;0.80;90.90;;;;;;5028218;28;20541;-66
2023/01/22 02:39:29;;;;;;;5.40;2.83;;;0.80;90.90;;;;;;5028522;28;20076;-66
2023/01/22 02:41:55;;;;;;;5.65;2.88;;;0.80;90.90;;;;;;5023998;28;20479;-67
2023/01/22 02:44:20;;;;;;;4.38;2.50;;;0.80;90.90;;;;;;5029689;28;20108;-67
2023/01/22 02:46:46;;;;;;;6.75;3.88;;;0.80;90.90;;;;;;5026158;28;20049;-68
2023/01/22 02:49:12;;;;;;;6.85;2.80;;;0.80;91.00;;;;;;5029500;28;20017;-66
2023/01/22 02:51:37;;;;;;;5.20;2.95;;;0.80;91.00;;;;;;5028915;28;20025;-66
2023/01/22 02:54:03;;;;;;;4.82;3.03;;;0.80;91.20;;;;;;5029265;28;20483;-67
2023/01/22 02:56:29;;;;;;;5.45;2.92;;;0.70;91.00;;;;;;5027576;28;20139;-67
2023/01/22 02:58:54;;;;;;;4.50;2.92;;;0.70;91.10;;;;;;5028934;28;20021;-67
2023/01/22 03:01:22;;;;;;;3.83;2.50;;;0.70;91.10;;;;;;5029007;28;20021;-65
2023/01/22 03:03:54;;;;;;;3.28;1.98;;;0.70;91.10;;;;;;5028511;28;20022;-68
2023/01/22 03:06:21;;;;;;;3.53;2.25;;;0.70;91.20;;;;;;5027484;28;20478;-67
2023/01/22 03:08:53;;;;;;;5.03;2.60;;;0.70;91.10;;;;;;5028437;28;20104;-67
2023/01/22 03:11:19;;;;;;;4.22;2.50;;;0.80;91.10;;;;;;5029282;28;20029;-66
2023/01/22 03:21:58;;;;;;;7.80;3.65;;;0.70;91.10;;;;;;5029106;28;20132;-66
2023/01/22 03:24:23;;;;;;;4.95;2.60;;;0.70;91.10;;;;;;5026567;28;20104;-69
2023/01/22 03:26:49;;;;;;;7.97;3.20;;;0.70;91.20;;;;;;5026742;28;20029;-66
2023/01/22 03:29:14;;;;;;;4.82;2.70;;;0.70;91.20;;;;;;5028636;28;20040;-67
2023/01/22 03:31:40;;;;;;;5.95;3.00;;;0.70;91.10;;;;;;5028915;28;20476;-66
2023/01/22 03:34:05;;;;;;;4.53;2.10;;;0.70;91.10;;;;;;5028880;28;20045;-67
2023/01/22 03:36:31;;;;;;;4.90;2.55;;;0.80;91.10;;;;;;5021678;28;20036;-66
2023/01/22 03:38:56;;;;;;;3.72;2.10;;;0.80;91.10;;;;;;5025663;28;20369;-68
2023/01/22 03:41:22;;;;;;;8.63;3.08;;;0.70;91.10;;;;;;5027012;28;20491;-67
2023/01/22 03:43:47;;;;;;;5.68;3.00;;;0.70;91.10;;;;;;5025739;28;20092;-65
2023/01/22 03:46:16;;;;;;;4.07;2.10;;;0.80;91.10;;;;;;5026553;28;20135;-65
2023/01/22 03:48:42;;;;;;;3.97;2.40;;;0.80;91.10;;;;;;5028911;28;20021;-65
2023/01/22 03:51:13;;;;;;;4.90;2.80;;;0.80;91.10;;;;;;5029525;28;20028;-65
2023/01/22 03:53:40;;;;;;;3.47;2.25;;;0.80;91.00;;;;;;5022910;28;20033;-66
2023/01/22 03:56:10;;;;;;;4.40;2.20;;;0.90;91.10;;;;;;5027988;28;20029;-65
2023/01/22 03:58:36;;;;;;;3.40;1.80;;;0.90;91.00;;;;;;5028294;28;20384;-66
2023/01/22 04:01:04;;;;;;;4.50;2.38;;;0.90;91.00;;;;;;5028943;28;20033;-66
2023/01/22 04:03:30;;;;;;;2.65;1.92;;;0.90;91.00;;;;;;5027229;28;20361;-66
2023/01/22 04:05:59;;;;;;;3.95;2.10;;;0.90;91.00;;;;;;5026958;28;20018;-66
2023/01/22 04:08:26;;;;;;;3.50;2.28;;;1.00;91.00;;;;;;5029495;28;20010;-66
2023/01/22 04:10:51;;;;;;;5.97;2.75;;;1.00;91.00;;;;;;5032939;28;20451;-66
2023/01/22 04:13:17;;;;;;;4.07;2.40;;;1.00;91.00;;;;;;5030107;28;20037;-68
2023/01/22 04:15:44;;;;;;;5.40;2.55;;;1.00;91.00;;;;;;5032709;28;20056;-65
2023/01/22 04:18:10;;;;;;;4.55;2.53;;;1.00;90.90;;;;;;5031119;28;20033;-68
2023/01/22 04:20:35;;;;;;;3.15;2.00;;;1.00;91.00;;;;;;5032670;28;20113;-68
2023/01/22 04:23:01;;;;;;;3.55;2.30;;;1.00;90.90;;;;;;5030155;28;20091;-67
2023/01/22 04:25:26;;;;;;;6.18;2.83;;;1.00;90.90;;;;;;5031365;28;20478;-67
2023/01/22 04:27:52;;;;;;;5.15;2.95;;;0.90;91.00;;;;;;5030632;28;20113;-66
2023/01/22 04:30:17;;;;;;;7.32;3.08;;;1.00;91.00;;;;;;5032479;28;20080;-68
2023/01/22 04:32:43;;;;;;;4.25;2.35;;;1.00;91.00;;;;;;5031364;28;20025;-66
2023/01/22 04:35:09;;;;;;;5.07;2.58;;;1.00;91.00;;;;;;5030526;28;20025;-67
2023/01/22 04:37:34;;;;;;;6.07;2.60;;;1.00;91.00;;;;;;5023617;28;20447;-66
2023/01/22 04:40:00;;;;;;;6.88;3.55;;;1.00;91.00;;;;;;5029619;28;20033;-68
2023/01/22 04:42:26;;;;;;;5.72;3.20;;;1.00;91.00;;;;;;5029582;28;20568;-69
2023/01/22 04:44:52;;;;;;;5.72;3.00;;;1.00;91.00;;;;;;5029847;28;20029;-66
2023/01/22 04:47:18;;;;;;;4.30;2.38;;;0.90;91.00;;;;;;5022685;28;20026;-66
2023/01/22 04:49:44;;;;;;;3.92;2.13;;;1.00;91.00;;;;;;5031645;28;20026;-66
2023/01/22 04:52:09;;;;;;;6.25;2.95;;;1.00;91.00;;;;;;5031655;28;20080;-66
2023/01/22 04:54:35;;;;;;;5.10;2.78;;;1.00;91.00;;;;;;5029503;28;20383;-66
2023/01/22 04:57:00;;;;;;;4.95;2.72;;;1.00;91.00;;;;;;5022834;28;20079;-68
2023/01/22 04:59:26;;;;;;;4.05;2.33;;;1.00;91.00;;;;;;5027681;28;20083;-66
2023/01/22 05:01:51;;;;;;;5.10;2.50;;;1.00;91.00;;;;;;5031398;28;20037;-65
2023/01/22 05:04:17;;;;;;;4.65;2.45;;;0.90;91.00;;;;;;5030120;28;20025;-65
2023/01/22 05:06:43;;;;;;;5.38;3.15;;;1.00;91.10;;;;;;5031712;28;20030;-65
2023/01/22 05:09:09;;;;;;;5.47;2.78;;;0.90;91.10;;;;;;5029896;28;20022;-66
2023/01/22 05:11:34;;;;;;;5.53;2.63;;;1.00;91.10;;;;;;5031637;28;20108;-66
2023/01/22 05:14:00;;;;;;;3.88;2.40;;;1.00;91.10;;;;;;5027671;28;20092;-67
2023/01/22 05:16:25;;;;;;;4.43;2.42;;;1.00;91.20;;;;;;5031009;28;20030;-66
2023/01/22 05:18:51;;;;;;;5.43;2.65;;;0.90;91.00;;;;;;5029011;28;20086;-67
2023/01/22 05:21:16;;;;;;;5.68;2.63;;;0.90;91.10;;;;;;5028964;28;20079;-66
2023/01/22 05:23:43;;;;;;;6.32;3.25;;;1.00;91.10;;;;;;5030312;28;20060;-66
2023/01/22 05:26:09;;;;;;;3.70;2.33;;;1.00;91.10;;;;;;5030793;28;20071;-67
2023/01/22 05:28:34;;;;;;;3.80;2.22;;;0.90;91.10;;;;;;5024345;28;20022;-65
2023/01/22 05:31:00;;;;;;;4.20;2.47;;;1.00;91.10;;;;;;5030015;28;20150;-66
2023/01/22 05:33:29;;;;;;;6.75;2.83;;;1.00;91.10;;;;;;5023527;28;20123;-66
2023/01/22 05:36:00;;;;;;;4.65;2.50;;;1.00;91.10;;;;;;5028045;28;20036;-66
2023/01/22 05:38:26;;;;;;;4.85;2.75;;;1.00;91.10;;;;;;5028494;28;20033;-67
2023/01/22 05:40:52;;;;;;;6.82;2.90;;;1.00;91.00;;;;;;5030750;28;20026;-66
2023/01/22 05:43:17;;;;;;;8.07;3.20;;;1.00;91.10;;;;;;5029108;28;20579;-67
2023/01/22 05:45:43;;;;;;;6.28;3.28;;;1.00;91.10;;;;;;5025511;28;20435;-67
2023/01/22 05:48:09;;;;;;;5.40;2.80;;;1.00;91.10;;;;;;5030748;28;20079;-66
2023/01/22 05:50:35;;;;;;;6.32;3.38;;;1.00;91.10;;;;;;5032370;28;20511;-66
2023/01/22 05:53:01;;;;;;;6.07;2.58;;;1.00;91.10;;;;;;5010905;28;20054;-66
2023/01/22 05:55:27;;;;;;;3.47;2.15;;;1.00;91.10;;;;;;5030691;28;20559;-65
2023/01/22 05:57:52;;;;;;;4.13;2.25;;;1.00;91.00;;;;;;5023569;28;20108;-67
2023/01/22 06:00:18;;;;;;;7.68;3.20;;;1.00;91.10;;;;;;5018825;28;20030;-67
2023/01/22 06:02:44;;;;;;;5.38;2.50;;;1.00;91.10;;;;;;5024211;28;20054;-65
2023/01/22 06:05:09;;;;;;;4.75;2.85;;;1.00;91.10;;;;;;5027536;28;20026;-65
2023/01/22 06:07:35;;;;;;;4.35;2.47;;;1.00;91.10;;;;;;5026917;28;20048;-67
2023/01/22 06:10:00;;;;;;;10.90;3.03;;;1.00;91.10;;;;;;5030043;28;20100;-69
2023/01/22 06:12:26;;;;;;;7.38;3.70;;;1.00;91.10;;;;;;5030817;28;20480;-66
2023/01/22 06:14:53;;;;;;;8.38;3.65;;;1.00;91.20;;;;;;5029995;28;20120;-66
2023/01/22 06:17:18;;;;;;;4.15;2.78;;;1.00;91.20;;;;;;5030156;28;20108;-67
2023/01/22 06:19:44;;;;;;;6.03;3.00;;;1.00;91.10;;;;;;5029379;28;20128;-66
2023/01/22 06:22:10;;;;;;;5.38;2.95;;;1.00;91.00;;;;;;5030319;28;20026;-67
2023/01/22 06:24:35;;;;;;;5.63;2.92;;;1.00;91.00;;;;;;5025702;28;20017;-66
2023/01/22 06:27:01;;;;;;;3.10;2.22;;;1.00;91.00;;;;;;5030392;28;20018;-67
2023/01/22 06:29:27;;;;;;;6.18;3.10;;;1.00;91.10;;;;;;5029591;28;20029;-67
2023/01/22 06:31:52;;;;;;;5.47;2.65;;;1.00;91.00;;;;;;5029038;28;20083;-66
2023/01/22 06:34:18;;;;;;;5.10;3.10;;;1.00;91.10;;;;;;5027856;28;20021;-66
2023/01/22 06:36:44;;;;;;;4.57;2.63;;;1.00;91.10;;;;;;5027003;28;20025;-67
2023/01/22 06:39:09;;;;;;;4.78;2.90;;;1.00;91.10;;;;;;5029215;28;20057;-67
2023/01/22 06:41:35;;;;;;;4.35;2.80;;;1.00;91.10;;;;;;5029660;28;20017;-66
2023/01/22 06:44:00;;;;;;;4.55;2.67;;;1.00;91.10;;;;;;5027992;28;20025;-67
2023/01/22 06:46:26;;;;;;;5.30;2.78;;;1.00;91.10;;;;;;5029586;28;20018;-66
2023/01/22 06:48:52;;;;;;;4.10;2.47;;;1.00;91.10;;;;;;5028722;28;20471;-66
2023/01/22 06:51:18;;;;;;;5.10;2.45;;;1.00;91.10;;;;;;5024682;28;20110;-66
2023/01/22 06:53:44;;;;;;;5.28;2.92;;;0.90;91.10;;;;;;5025175;28;20116;-66
2023/01/22 06:56:10;;;;;;;5.88;2.83;;;1.00;91.10;;;;;;5029772;28;20547;-67
2023/01/22 06:58:36;;;;;;;4.35;2.38;;;1.00;91.20;;;;;;5028986;28;20108;-67
2023/01/22 07:01:04;;;;;;;5.35;2.53;;;1.00;91.20;;;;;;5026653;28;20624;-66
2023/01/22 07:03:29;;;;;;;4.68;2.47;;;1.00;91.20;;;;;;5028391;28;20044;-67
2023/01/22 07:06:00;;;;;;;4.13;2.20;;;1.00;91.10;;;;;;5028974;28;20025;-69
2023/01/22 07:08:27;;;;;;;4.28;2.65;;;1.00;91.10;;;;;;5029120;28;20092;-65
2023/01/22 07:10:52;;;;;;;4.70;2.70;;;1.00;91.10;;;;;;5026512;28;20083;-66
2023/01/22 07:13:18;;;;;;;4.95;2.72;;;1.00;91.10;;;;;;5027264;28;20025;-66
2023/01/22 07:15:43;;;;;;;5.95;2.95;;;1.00;91.10;;;;;;5029035;28;20068;-66
2023/01/22 07:18:10;;;;;;;3.67;2.45;;;1.00;91.10;;;;;;5028825;28;20491;-65
2023/01/22 07:20:36;;;;;;;4.13;2.03;;;1.00;91.10;;;;;;5028525;28;20132;-67
2023/01/22 07:23:02;;;;;;;5.10;2.70;;;1.00;91.10;;;;;;5026938;28;20105;-68
2023/01/22 07:25:28;;;;;;;6.10;3.17;;;1.00;91.10;;;;;;5028327;28;20087;-67
2023/01/22 07:28:00;;;;;;;3.45;2.13;;;1.00;91.10;;;;;;5025925;28;20025;-68
2023/01/22 07:30:26;;;;;;;4.30;2.35;;;1.00;91.10;;;;;;5022114;28;20029;-67
2023/01/22 07:32:51;;;;;;;4.05;2.30;;;1.00;91.10;;;;;;5022954;28;20040;-67
2023/01/22 07:35:17;;;;;;;5.80;2.70;;;1.00;91.10;;;;;;5028570;28;20037;-67
2023/01/22 07:37:50;;;;;;;4.55;2.13;;;1.00;91.30;;;;;;5029133;28;20033;-68
2023/01/22 07:40:16;;;;;;;10.27;2.88;;;1.00;91.10;;;;;;5028239;28;20035;-67
2023/01/22 07:42:41;;;;;;;5.30;3.00;;;1.00;91.10;;;;;;5026674;28;20096;-69
2023/01/22 07:45:10;;;;;;;5.60;2.90;;;0.90;91.10;;;;;;5022286;28;20030;-68
2023/01/22 07:47:35;;;;;;;4.95;2.20;;;1.00;91.10;;;;;;5027869;28;20404;-67
2023/01/22 07:50:01;;;;;;;3.55;2.10;;;0.90;91.10;;;;;;5030307;28;20025;-68
2023/01/22 07:52:27;;;;;;;4.10;2.78;;;1.00;91.10;;;;;;5025928;28;20120;-66
2023/01/22 07:54:52;;;;;;;4.80;2.60;;;1.00;91.10;;;;;;5028029;28;20585;-67
2023/01/22 07:57:18;;;;;;;5.97;2.45;;;1.00;91.10;;;;;;5027994;28;20552;-67
2023/01/22 07:59:43;;;;;;;4.53;2.65;;;1.00;91.10;;;;;;5025557;28;20404;-70
2023/01/22 08:02:14;;;;;;;4.95;2.25;;;1.00;91.10;;;;;;5023645;28;20022;-67
2023/01/22 08:04:41;;;;;;;5.28;2.63;;;1.10;91.10;;;;;;5028190;28;20542;-66
2023/01/22 08:07:15;;;;;;;4.63;2.78;;;1.10;91.10;;;;;;5028092;28;20026;-67
2023/01/22 08:09:41;;;;;;;3.33;2.00;;;1.10;91.10;;;;;;5026013;28;20091;-67
2023/01/22 08:12:06;;;;;;;4.68;2.65;;;1.10;91.00;;;;;;5027773;28;20029;-68
2023/01/22 08:14:32;;;;;;;6.00;2.97;;;1.20;91.00;;;;;;5028308;28;20117;-67
2023/01/22 08:16:57;;;;;;;4.82;2.60;;;1.20;91.00;;;;;;5029153;28;20395;-67
2023/01/22 08:19:23;;;;;;;4.57;2.83;;;1.20;91.00;;;;;;5029580;28;20387;-67
2023/01/22 08:21:48;;;;;;;4.53;2.47;;;1.20;91.00;;;;;;5027078;28;20029;-69
2023/01/22 08:24:14;;;;;;;5.03;3.22;;;1.20;91.00;;;;;;5028444;28;20057;-67
2023/01/22 08:26:40;;;;;;;5.60;3.42;;;1.20;91.00;;;;;;5028989;28;20021;-66
2023/01/22 08:29:05;;;;;;;5.38;2.85;;;1.20;91.00;;;;;;5029285;28;20499;-67
2023/01/22 08:31:32;;;;;;;4.10;2.60;;;1.30;91.00;;;;;;5025705;28;20041;-67
2023/01/22 08:33:58;;;;;;;5.47;3.05;;;1.30;90.90;;;;;;5022533;28;20034;-68
2023/01/22 08:36:24;;;;;;;4.93;2.75;;;1.30;91.00;;;;;;5022623;28;20028;-69
2023/01/22 08:38:49;;;;;;;4.50;3.08;;;1.30;90.90;;;;;;5022918;28;20025;-66
2023/01/22 08:41:15;;;;;;;3.35;2.25;;;1.30;90.90;;;;;;5020872;28;20039;-68
2023/01/22 08:43:41;;;;;;;2.80;2.25;;;1.30;90.90;;;;;;5022370;28;20080;-66
2023/01/22 08:46:06;;;;;;;4.68;3.05;;;1.30;90.90;;;;;;5026050;28;20026;-67
2023/01/22 08:48:32;;;;;;;4.93;2.60;;;1.40;90.90;;;;;;5029246;28;20030;-68
2023/01/22 08:51:00;;;;;;;4.40;1.98;;;1.40;90.90;;;;;;5022944;28;20033;-68
2023/01/22 08:53:26;;;;;;;5.53;2.65;;;1.40;90.90;;;;;;5027229;28;20123;-68
2023/01/22 08:55:51;;;;;;;3.58;2.42;;;1.40;90.90;;;;;;5031857;28;20037;-68
2023/01/22 08:58:19;;;;;;;3.53;2.30;;;1.50;90.90;;;;;;5032705;28;20051;-67
2023/01/22 09:00:45;;;;;;;5.03;3.42;;;1.50;90.80;;;;;;5032428;28;20026;-66
2023/01/22 09:03:11;;;;;;;3.50;2.05;;;1.50;90.80;;;;;;5031320;28;20029;-69
2023/01/22 09:05:39;;;;;;;5.00;2.40;;;1.60;90.80;;;;;;5025005;28;20022;-67
2023/01/22 09:08:06;;;;;;;2.83;2.25;;;1.60;90.70;;;;;;5030066;28;20029;-70
2023/01/22 09:10:32;;;;;;;3.67;2.30;;;1.60;90.70;;;;;;5027394;28;20040;-67
2023/01/22 09:12:59;;;;;;;3.72;2.25;;;1.60;90.70;;;;;;5032102;28;20029;-67
2023/01/22 09:15:24;;;;;;;2.78;2.15;;;1.60;90.70;;;;;;5024357;28;20420;-68
2023/01/22 09:17:50;;;;;;;3.80;2.22;;;1.60;90.70;;;;;;5030940;28;20026;-65
2023/01/22 09:20:16;;;;;;;3.67;2.15;;;1.60;90.70;;;;;;5022756;28;20391;-66
2023/01/22 09:22:44;;;;;;;3.25;1.85;;;1.70;90.70;;;;;;5031376;28;20037;-67
2023/01/22 09:25:10;;;;;;;3.72;2.58;;;1.60;90.60;;;;;;5025280;28;20021;-67
2023/01/22 09:27:36;;;;;;;4.13;2.10;;;1.70;90.70;;;;;;5031858;28;20150;-67
2023/01/22 09:30:02;;;;;;;3.53;2.13;;;1.70;90.70;;;;;;5031753;28;20045;-67
2023/01/22 09:32:27;;;;;;;3.53;2.30;;;1.70;90.60;;;;;;5029293;28;20033;-67
2023/01/22 09:34:53;;;;;;;3.58;2.20;;;1.70;90.50;;;;;;5037111;28;20501;-67
2023/01/22 09:37:19;;;;;;;5.20;2.20;;;1.80;90.60;;;;;;5031924;28;20033;-67
2023/01/22 09:39:48;;;;;;;2.60;2.20;;;1.80;90.60;;;;;;5031516;28;20041;-67
2023/01/22 09:42:20;;;;;;;3.22;2.58;;;1.80;90.60;;;;;;5031020;28;20360;-68
2023/01/22 09:44:50;;;;;;;3.40;1.80;;;1.80;90.60;;;;;;5018278;28;20022;-67
2023/01/22 09:47:20;;;;;;;4.13;2.15;;;1.80;90.50;;;;;;5029356;28;20014;-68
2023/01/22 09:49:57;;;;;;;2.30;2.10;;;1.80;90.50;;;;;;5031365;28;20029;-65
2023/01/22 09:52:27;;;;;;;3.67;2.00;;;1.80;90.50;;;;;;5030609;28;20029;-66
2023/01/22 09:54:53;;;;;;;3.72;2.20;;;1.80;90.50;;;;;;5028261;28;20636;-66
2023/01/22 09:57:19;;;;;;;3.78;2.55;;;1.90;90.50;;;;;;5030172;28;20033;-67
2023/01/22 09:59:48;;;;;;;3.88;2.47;;;1.90;90.50;;;;;;5030590;28;20072;-66
2023/01/22 10:02:19;;;;;;;4.65;2.42;;;1.90;90.40;;;;;;5026297;28;20490;-69
2023/01/22 10:04:47;;;;;;;3.67;2.10;;;1.90;90.50;;;;;;5023485;28;20034;-66
2023/01/22 10:07:29;;;;;;;4.85;2.80;;;2.00;90.50;;;;;;5026775;28;20035;-66
2023/01/22 10:09:57;;;;;;;;;;;2.00;90.40;;;;;;5027145;28;20030;-66
2023/01/22 10:12:30;;;;;;;3.60;2.28;;;2.00;90.40;;;;;;5031888;28;19943;-66
2023/01/22 10:14:56;;;;;;;6.28;2.78;;;2.00;90.30;;;;;;5030989;28;20033;-66
2023/01/22 10:17:28;;;;;;;4.70;2.90;;;2.00;90.40;;;;;;5029699;28;20037;-66
2023/01/22 10:19:55;;;;;;;;;;;2.00;90.40;;;;;;5025374;28;20032;-68
2023/01/22 10:22:23;;;;;;;4.28;2.75;;;2.00;90.40;;;;;;5027640;28;20028;-66
2023/01/22 10:24:49;;;;;;;5.90;2.47;;;1.90;90.40;;;;;;5019881;28;20431;-68
2023/01/22 10:27:19;;;;;;;4.60;2.78;;;1.90;90.40;;;;;;5028094;28;20037;-67
2023/01/22 10:30:13;;;;;;;4.35;2.75;;;1.90;90.50;;;;;;5029574;28;20036;-66
2023/01/22 10:32:38;;;;;;;4.57;2.50;;;2.00;90.50;;;;;;5024307;28;20030;-66
2023/01/22 10:35:09;;;;;;;4.30;2.13;;;2.00;90.40;;;;;;5027941;28;20024;-66
2023/01/22 10:37:52;;;;;;;4.60;2.10;;;2.00;90.50;;;;;;5029786;28;20026;-68
2023/01/22 10:40:33;;;;;;;4.32;1.80;;;2.00;90.50;;;;;;5029283;28;20112;-66
2023/01/22 10:43:10;;;;;;;7.43;2.60;;;2.10;90.50;;;;;;5030187;28;20034;-67
2023/01/22 10:45:36;;;;;;;4.88;2.53;;;2.10;90.40;;;;;;5029444;28;20018;-65
2023/01/22 10:48:21;;;;;;;3.88;2.40;;;2.10;90.40;;;;;;5029731;28;20025;-66
2023/01/22 10:51:00;;;;;;;4.65;2.47;;;2.10;90.40;;;;;;5030859;28;20041;-66
2023/01/22 10:53:35;;;;;;;5.53;2.25;;;2.10;90.30;;;;;;5029844;28;20030;-66
2023/01/22 10:56:06;;;;;;;2.85;2.03;;;2.10;90.40;;;;;;5029251;28;20026;-66
2023/01/22 10:58:35;;;;;;;2.72;2.13;;;2.10;90.50;;;;;;5027582;28;20028;-67
2023/01/22 11:01:06;;;;;;;5.47;3.00;;;2.10;90.50;;;;;;5028860;28;20071;-66
2023/01/22 11:03:36;;;;;;;3.75;2.45;;;2.10;90.40;;;;;;5029724;28;20101;-68
2023/01/22 11:06:16;;;;;;;2.47;1.85;;;2.10;90.50;;;;;;5028642;28;20124;-66
2023/01/22 11:08:56;;;;;;;3.95;1.90;;;2.20;90.40;;;;;;5020873;28;20025;-66
2023/01/22 11:11:34;;;;;;;4.68;2.70;;;2.20;90.40;;;;;;5030186;28;20514;-66
2023/01/22 11:14:23;;;;;;;3.58;2.50;;;2.20;90.40;;;;;;5029490;28;20060;-65
2023/01/22 11:16:51;;;;;;;4.78;2.67;;;2.20;90.40;;;;;;5020524;28;20676;-67
2023/01/22 11:19:20;;;;;;;3.30;2.00;;;2.20;90.40;;;;;;5026667;28;20390;-67
2023/01/22 11:21:51;;;;;;;3.55;2.33;;;2.20;90.50;;;;;;5026007;28;20034;-66
2023/01/22 11:24:35;;;;;;;2.10;1.70;;;2.30;90.40;;;;;;5023357;28;20021;-66
2023/01/22 11:27:22;;;;;;;2.38;1.60;;;2.30;90.40;;;;;;5026063;28;20101;-65
2023/01/22 11:30:36;;;;;;;2.63;2.15;;;2.30;90.40;;;;;;5030188;28;20033;-63
2023/01/22 11:33:17;;;;;;;;;;;2.40;90.40;;;;;;5029368;28;20116;-65
2023/01/22 11:35:56;;;;;;;2.92;2.17;;;2.40;90.30;;;;;;5025139;28;19958;-65
2023/01/22 11:38:29;;;;;;;4.75;2.60;;;2.40;90.30;;;;;;5024312;28;20068;-65
2023/01/22 11:41:33;;;;;;;2.80;2.10;;;2.40;90.30;;;;;;5029823;28;20029;-65
2023/01/22 11:44:23;;;;;;;3.22;2.10;;;2.40;90.30;;;;;;5024327;28;20057;-66
2023/01/22 11:47:02;;;;;;;4.28;2.40;;;2.40;90.30;;;;;;5026462;28;20453;-64
2023/01/22 11:49:49;;;;;;;5.38;2.25;;;2.30;90.20;;;;;;5022068;28;20013;-66
2023/01/22 11:52:25;;;;;;;5.13;2.72;;;2.30;90.30;;;;;;5029233;28;20025;-64
2023/01/22 11:55:01;;;;;;;5.13;2.55;;;2.30;90.30;;;;;;5026932;28;20033;-67
2023/01/22 11:57:42;;;;;;;4.43;2.33;;;2.30;90.40;;;;;;5026133;28;20026;-66
2023/01/22 12:00:42;;;;;;;4.05;1.70;;;2.40;90.40;;;;;;5026267;28;20453;-65
2023/01/22 12:03:10;;;;;;;6.20;3.00;;;2.40;90.40;;;;;;5028763;28;20026;-67
2023/01/22 12:05:46;;;;;;;4.22;2.50;;;2.40;90.30;;;;;;5027319;28;20021;-65
2023/01/22 12:08:48;;;;;;;4.72;2.70;;;2.40;90.30;;;;;;5020045;28;20033;-65
2023/01/22 12:11:32;;;;;;;5.85;3.33;;;2.40;90.30;;;;;;5026129;28;20423;-66
2023/01/22 12:14:49;;;;;;;4.22;2.30;;;2.40;90.20;;;;;;5025641;28;20484;-65
2023/01/22 12:17:36;;;;;;;2.38;1.70;;;2.40;90.30;;;;;;5019619;28;20499;-64
2023/01/22 12:20:20;;;;;;;3.83;2.28;;;2.50;90.30;;;;;;5025863;28;20029;-65
2023/01/22 12:22:51;;;;;;;5.35;2.72;;;2.50;90.20;;;;;;5020493;28;20025;-64
2023/01/22 12:25:23;;;;;;;3.60;2.63;;;2.60;90.20;;;;;;5023369;28;20243;-64
2023/01/22 12:27:56;;;;;;;2.65;1.75;;;2.60;90.20;;;;;;5024514;28;20029;-64
2023/01/22 12:30:38;;;;;;;3.47;2.25;;;2.60;90.20;;;;;;5028971;28;20025;-65
2023/01/22 12:33:09;;;;;;;4.30;2.20;;;2.70;90.20;;;;;;5029466;28;20380;-68
2023/01/22 12:35:34;;;;;;;5.05;2.95;;;2.70;90.10;;;;;;5027398;28;20021;-66
2023/01/22 12:38:10;;;;;;;4.25;2.45;;;2.70;90.10;;;;;;5029535;28;20029;-64
2023/01/22 12:40:53;;;;;;;3.28;1.90;;;2.60;90.10;;;;;;5028990;28;20399;-64
2023/01/22 12:43:39;;;;;;;6.05;2.78;;;2.70;90.20;;;;;;5025482;28;20175;-68
2023/01/22 12:46:29;;;;;;;9.63;3.97;;;2.80;90.10;;;;;;5021033;28;20034;-64
2023/01/22 12:49:15;;;;;;;4.90;2.30;;;2.70;90.10;;;;;;5028309;28;20026;-66
2023/01/22 12:51:41;;;;;;;3.35;1.98;;;2.70;90.10;;;;;;5023410;28;20093;-67
2023/01/22 12:54:15;;;;;;;4.93;2.80;;;2.70;90.20;;;;;;5029983;28;20029;-66
2023/01/22 12:56:41;;;;;;;4.90;2.25;;;2.70;90.20;;;;;;5026764;28;20026;-64
2023/01/22 12:59:35;;;;;;;3.85;2.17;;;2.80;90.20;;;;;;5028667;28;20028;-66
2023/01/22 13:02:34;;;;;;;2.45;1.63;;;2.70;90.10;;;;;;5027536;28;20589;-68
2023/01/22 13:05:25;;;;;;;4.07;2.20;;;2.80;90.20;;;;;;5026669;28;20018;-66
2023/01/22 13:08:06;;;;;;;2.83;2.08;;;2.80;90.40;;;;;;5029201;28;20025;-66
2023/01/22 13:10:35;;;;;;;6.38;2.58;;;2.80;90.10;;;;;;5029415;28;20025;-66
2023/01/22 13:13:12;;;;;;;4.30;2.33;;;2.90;90.10;;;;;;5029462;28;20025;-66
2023/01/22 13:15:38;;;;;;;4.97;2.80;;;2.90;90.10;;;;;;5027186;28;20029;-67